Time;durP1;ratioP1;P1;durP2;ratioP2;P2;SDS_P1;SDS_P2;PMS_P1;PMS_P2;Temp;Humidity;BMP_temperature;BMP_pressure;BME280_temperature;BME280_humidity;BME280_pressure;Samples;Min_cycle;Max_cycle;Signal;HPM_P1;HPM_P2
2024/01/24 00:55:37;;;;;;;;;;;-0.90;99.90;;;;;;5899087;24;20056;-80
2024/01/24 02:10:16;;;;;;;;;;;-1.20;99.90;;;;;;6321746;22;19920;-80
2024/01/24 02:12:45;;;;;;;;;;;-1.10;99.90;;;;;;6333050;22;19914;-80
2024/01/24 02:15:14;;;;;;;;;;;-1.20;99.90;;;;;;6363518;22;19934;-80
2024/01/24 02:17:44;;;;;;;;;;;-1.70;99.90;;;;;;6336420;22;19922;-79
2024/01/24 02:20:18;;;;;;;;;;;-1.30;99.90;;;;;;6335808;22;19958;-80
2024/01/24 02:22:47;;;;;;;;;;;-0.50;99.90;;;;;;6339441;22;19899;-81
2024/01/24 02:25:22;;;;;;;;;;;-1.60;99.90;;;;;;6339472;22;19911;-80
2024/01/24 02:27:54;;;;;;;;;;;-1.40;99.90;;;;;;6337373;22;19925;-79
2024/01/24 02:30:24;;;;;;;;;;;-1.20;99.90;;;;;;6365814;22;19915;-80
2024/01/24 02:32:52;;;;;;;;;;;-1.40;99.90;;;;;;6338520;22;19917;-80
2024/01/24 02:35:24;;;;;;;;;;;-1.50;99.90;;;;;;6338944;22;19899;-80
2024/01/24 02:37:53;;;;;;;;;;;-0.80;99.90;;;;;;6365053;22;19898;-80
2024/01/24 02:40:23;;;;;;;;;;;-1.90;99.90;;;;;;6337606;22;19925;-80
2024/01/24 02:42:57;;;;;;;;;;;-1.80;99.90;;;;;;6339567;22;19899;-80
2024/01/24 02:45:27;;;;;;;;;;;-1.30;99.90;;;;;;6338190;22;19898;-79
2024/01/24 02:47:56;;;;;;;;;;;0.50;99.90;;;;;;6338187;22;19918;-81
2024/01/24 03:45:09;;;;;;;;;;;-1.50;99.90;;;;;;6313568;22;19937;-79
2024/01/24 03:47:39;;;;;;;;;;;-1.00;99.90;;;;;;6335658;22;19924;-80
2024/01/24 03:50:10;;;;;;;;;;;-1.40;99.90;;;;;;6334175;22;19914;-79
2024/01/24 03:52:44;;;;;;;;;;;-1.30;99.90;;;;;;6336308;22;19898;-79
2024/01/24 03:55:16;;;;;;;;;;;-1.80;99.90;;;;;;6334960;22;19919;-80
2024/01/24 03:57:48;;;;;;;;;;;-1.50;99.90;;;;;;6335183;22;19918;-80
2024/01/24 04:00:21;;;;;;;;;;;-0.50;99.90;;;;;;6298754;22;20014;-80
2024/01/24 04:02:51;;;;;;;;;;;-1.30;99.90;;;;;;6273806;22;19930;-80
2024/01/24 04:05:22;;;;;;;;;;;-1.50;99.90;;;;;;6298899;22;19954;-79
2024/01/24 04:07:52;;;;;;;;;;;-1.50;99.90;;;;;;6249016;22;19911;-80
2024/01/24 04:10:23;;;;;;;;;;;-1.40;99.90;;;;;;6298947;22;19915;-80
2024/01/24 04:13:03;;;;;;;;;;;-1.70;99.90;;;;;;6274132;22;19992;-79
2024/01/24 04:19:37;;;;;;;;;;;-1.10;99.90;;;;;;6122223;23;19907;-80
2024/01/24 04:30:13;;;;;;;;;;;-1.40;99.90;;;;;;5980554;23;19903;-81
2024/01/24 04:33:20;;;;;;;;;;;-1.40;99.90;;;;;;5950301;24;19903;-80
2024/01/24 04:35:55;;;;;;;;;;;-1.40;99.90;;;;;;5944854;24;19926;-80
2024/01/24 04:38:32;;;;;;;;;;;0.30;99.90;;;;;;5925555;24;19930;-79
2024/01/24 04:41:09;;;;;;;;;;;-1.40;99.90;;;;;;5947360;24;19919;-79
2024/01/24 04:43:44;;;;;;;;;;;-2.80;99.90;;;;;;5945600;24;19942;-80
2024/01/24 04:46:22;;;;;;;;;;;-1.30;99.90;;;;;;5957454;24;20257;-80
2024/01/24 04:48:53;;;;;;;;;;;-1.30;99.90;;;;;;6007046;23;20376;-80
2024/01/24 04:58:26;;;;;;;;;;;-1.20;99.90;;;;;;6092586;23;19957;-81
2024/01/24 06:38:02;;;;;;;;;;;-0.50;99.90;;;;;;6292309;22;19929;-80
2024/01/24 06:40:32;;;;;;;;;;;-0.50;99.90;;;;;;6296753;22;19934;-80
2024/01/24 06:43:00;;;;;;;;;;;-0.20;99.90;;;;;;6294388;22;19921;-80
2024/01/24 06:48:18;;;;;;;;;;;-0.30;99.90;;;;;;6261545;22;19970;-79
2024/01/24 06:54:08;;;;;;;;;;;-0.30;99.90;;;;;;6235868;23;19922;-80
2024/01/24 06:57:09;;;;;;;;;;;-0.20;99.90;;;;;;6211830;23;19967;-80
2024/01/24 07:06:11;;;;;;;;;;;-0.10;99.90;;;;;;6303822;22;19964;-79
2024/01/24 07:08:40;;;;;;;;;;;-0.10;99.90;;;;;;6324162;22;19950;-78
2024/01/24 07:11:11;;;;;;;;;;;0.00;99.90;;;;;;6328691;22;19921;-79
2024/01/24 07:13:40;;;;;;;;;;;-1.00;99.90;;;;;;6324760;22;20324;-79
2024/01/24 07:16:09;;;;;;;;;;;1.00;99.90;;;;;;6324215;22;19928;-78
2024/01/24 07:18:43;;;;;;;;;;;-0.10;99.90;;;;;;6320736;22;19918;-77
2024/01/24 07:21:11;;;;;;;;;;;0.20;99.90;;;;;;6317207;22;19921;-78
2024/01/24 07:23:40;;;;;;;;;;;0.30;99.90;;;;;;6319600;22;19914;-78
2024/01/24 07:26:08;;;;;;;;;;;0.30;99.90;;;;;;6318418;22;20335;-78
2024/01/24 07:28:41;;;;;;;;;;;0.30;99.90;;;;;;6347301;22;19915;-78
2024/01/24 07:31:10;;;;;;;;;;;0.40;99.90;;;;;;6321310;22;19983;-78
2024/01/24 07:33:49;;;;;;;;;;;0.50;99.90;;;;;;6324841;22;20286;-78
2024/01/24 07:36:20;;;;;;;;;;;0.60;99.90;;;;;;6291441;22;19946;-79
2024/01/24 07:38:52;;;;;;;;;;;0.70;99.90;;;;;;6227741;23;19942;-79
2024/01/24 07:41:23;;;;;;;;;;;0.40;99.90;;;;;;6204612;23;19990;-79
2024/01/24 07:43:54;;;;;;;;;;;0.80;99.90;;;;;;6203123;23;19915;-79
2024/01/24 07:46:27;;;;;;;;;;;0.90;99.90;;;;;;6203156;23;19916;-79
2024/01/24 07:48:57;;;;;;;;;;;1.40;99.90;;;;;;6203870;23;19950;-79
2024/01/24 07:51:28;;;;;;;;;;;1.10;99.90;;;;;;6228932;23;19947;-79
2024/01/24 07:54:03;;;;;;;;;;;1.20;99.90;;;;;;6207205;23;19915;-80
2024/01/24 07:56:35;;;;;;;;;;;1.30;99.90;;;;;;6201330;23;19991;-79
2024/01/24 07:59:06;;;;;;;;;;;1.30;99.90;;;;;;6202359;23;19932;-79
2024/01/24 08:01:43;;;;;;;;;;;1.70;99.90;;;;;;6233929;23;19919;-80
2024/01/24 08:04:23;;;;;;;;;;;1.40;99.90;;;;;;6234193;23;19950;-80
2024/01/24 08:07:18;;;;;;;;;;;2.20;99.90;;;;;;6116164;23;20012;-80
2024/01/24 08:20:15;;;;;;;;;;;1.90;99.90;;;;;;6033101;23;19918;-81
2024/01/24 08:48:17;;;;;;;;;;;1.20;99.90;;;;;;6216468;22;19942;-81
2024/01/24 10:21:19;;;;;;;;;;;2.10;99.90;;;;;;6367430;22;19977;-79
2024/01/24 10:24:23;;;;;;;;;;;1.20;99.90;;;;;;6288654;22;19915;-78
2024/01/24 10:30:56;;;;;;;;;;;2.60;99.90;;;;;;6123242;23;19901;-79
2024/01/24 10:33:49;;;;;;;;;;;2.40;99.90;;;;;;6093753;23;19913;-79
2024/01/24 14:51:12;;;;;;;;;;;2.90;99.90;;;;;;6303238;22;19915;-77
2024/01/24 14:53:56;;;;;;;;;;;3.30;99.90;;;;;;6276627;22;19903;-79
2024/01/24 16:55:04;;;;;;;;;;;2.40;99.90;;;;;;6260750;22;19911;-79
2024/01/24 17:08:18;;;;;;;;;;;2.10;99.90;;;;;;6042674;23;19922;-79
2024/01/24 17:18:16;;;;;;;;;;;2.40;99.90;;;;;;6009878;23;20001;-79
2024/01/24 19:42:49;;;;;;;;;;;2.70;99.90;;;;;;6237358;22;19918;-78
2024/01/24 19:45:19;;;;;;;;;;;2.70;99.90;;;;;;6180502;23;19912;-79
2024/01/24 19:48:13;;;;;;;;;;;4.10;99.90;;;;;;6148081;23;20031;-78
2024/01/24 19:50:48;;;;;;;;;;;4.00;99.90;;;;;;6148539;23;19960;-78
2024/01/24 19:53:22;;;;;;;;;;;3.30;99.90;;;;;;6125737;23;19909;-79
2024/01/24 19:56:03;;;;;;;;;;;2.90;99.90;;;;;;6125879;23;19944;-79
2024/01/24 19:58:37;;;;;;;;;;;2.00;99.90;;;;;;6149369;23;19920;-79
2024/01/24 20:01:08;;;;;;;;;;;2.70;99.90;;;;;;6147267;23;19950;-78
2024/01/24 20:03:44;;;;;;;;;;;2.70;99.90;;;;;;6145420;23;19909;-79
2024/01/24 20:06:16;;;;;;;;;;;2.80;99.90;;;;;;6121582;23;19908;-79
2024/01/24 20:08:47;;;;;;;;;;;2.70;99.90;;;;;;6122890;23;19913;-78
2024/01/24 20:11:20;;;;;;;;;;;2.80;99.90;;;;;;6122721;23;19925;-79
2024/01/24 20:13:53;;;;;;;;;;;2.70;99.90;;;;;;6124214;23;19925;-78
2024/01/24 20:16:24;;;;;;;;;;;2.60;99.90;;;;;;6147813;23;19923;-78
2024/01/24 20:18:55;;;;;;;;;;;3.10;99.90;;;;;;6147473;23;19909;-79
2024/01/24 20:21:27;;;;;;;;;;;3.50;99.90;;;;;;6125356;23;19909;-79
2024/01/24 20:23:58;;;;;;;;;;;1.70;99.90;;;;;;6192390;23;19911;-79
2024/01/24 20:26:33;;;;;;;;;;;1.20;99.90;;;;;;6250104;22;19930;-79
2024/01/24 20:29:07;;;;;;;;;;;5.40;99.90;;;;;;6212470;23;19918;-79
2024/01/24 20:31:40;;;;;;;;;;;2.40;99.90;;;;;;6211545;23;19927;-79
2024/01/24 20:34:12;;;;;;;;;;;1.20;99.90;;;;;;6261361;22;19908;-79
2024/01/24 20:36:44;;;;;;;;;;;2.40;99.90;;;;;;6237151;22;19924;-79
2024/01/24 20:39:17;;;;;;;;;;;1.20;99.90;;;;;;6260774;22;19919;-79
2024/01/24 20:41:47;;;;;;;;;;;4.00;99.90;;;;;;6208593;23;19924;-79
2024/01/24 20:44:21;;;;;;;;;;;1.70;99.90;;;;;;6236264;23;19908;-78
2024/01/24 21:27:55;;;;;;;;;;;2.40;99.90;;;;;;6238841;22;19917;-79
2024/01/24 21:30:24;;;;;;;;;;;3.20;99.90;;;;;;6294131;22;19907;-78
2024/01/24 21:32:53;;;;;;;;;;;2.60;99.90;;;;;;6298438;22;19907;-79
2024/01/24 21:35:22;;;;;;;;;;;1.40;99.90;;;;;;6269289;22;19947;-79
2024/01/24 21:37:51;;;;;;;;;;;2.90;99.90;;;;;;6270399;22;19927;-78
2024/01/24 21:40:22;;;;;;;;;;;2.40;99.90;;;;;;6269474;22;19911;-78
2024/01/24 21:42:50;;;;;;;;;;;2.90;99.90;;;;;;6266963;22;19918;-78
2024/01/24 21:45:21;;;;;;;;;;;2.70;99.90;;;;;;6269876;22;20638;-79
2024/01/24 21:47:49;;;;;;;;;;;2.60;99.90;;;;;;6269953;22;20151;-78
2024/01/24 21:50:18;;;;;;;;;;;2.50;99.90;;;;;;6270722;22;19919;-78
2024/01/24 21:52:47;;;;;;;;;;;3.00;99.90;;;;;;6267828;22;19922;-79
2024/01/24 21:55:15;;;;;;;;;;;3.60;99.90;;;;;;6271540;22;19930;-77
2024/01/24 22:18:20;;;;;;;;;;;4.00;99.90;;;;;;6195615;22;19958;-78
